Terminal Aerodrome Forecast
Issued by NWS

Home | Current Version | Previous Version | Text Only | Print | Product List | Glossary On
Versions: 1 2 3 4 5 6 7 8 9 10 11 12 13 14 15 16 17 18 19 20
000
FTUS43 KMQT 241100 AAA
TAFSAW
TAF AMD
KSAW 241153Z 2412/2512 21004KT 1SM BR OVC003
      TEMPO 2412/2414 1/2SM FG OVC001
     FM241500 21007KT 6SM BR OVC006
     FM241700 20009KT P6SM SCT010
     FM241900 20011KT P6SM SCT200
     FM250400 23009KT 5SM BR BKN004
     FM250900 26010KT P6SM SCT008
      AMD LTD TO CLD VIS AND WIND 2502/2510=

USA.gov is the U.S. government's official web portal to all federal, state and local government web resources and services.